sensor_id;sensor_type;location;lat;lon;timestamp;P1;durP1;ratioP1;P2;durP2;ratioP2
44919;SDS011;30655;53.094;6.072;2023-01-06T00:01:26;41.22;;;7.60;;
44919;SDS011;30655;53.094;6.072;2023-01-06T00:03:54;42.78;;;7.75;;
44919;SDS011;30655;53.094;6.072;2023-01-06T00:06:22;42.33;;;7.95;;
44919;SDS011;30655;53.094;6.072;2023-01-06T00:08:50;45.53;;;8.13;;
44919;SDS011;30655;53.094;6.072;2023-01-06T00:11:17;39.65;;;6.97;;
44919;SDS011;30655;53.094;6.072;2023-01-06T00:13:44;33.03;;;6.00;;
44919;SDS011;30655;53.094;6.072;2023-01-06T00:16:11;43.40;;;5.80;;
44919;SDS011;30655;53.094;6.072;2023-01-06T00:18:41;49.85;;;6.93;;
44919;SDS011;30655;53.094;6.072;2023-01-06T00:21:08;35.50;;;6.15;;
44919;SDS011;30655;53.094;6.072;2023-01-06T00:23:38;33.03;;;5.40;;
44919;SDS011;30655;53.094;6.072;2023-01-06T00:26:05;28.67;;;5.72;;
44919;SDS011;30655;53.094;6.072;2023-01-06T00:28:34;30.58;;;4.72;;
44919;SDS011;30655;53.094;6.072;2023-01-06T00:31:04;22.73;;;4.60;;
44919;SDS011;30655;53.094;6.072;2023-01-06T00:33:31;25.37;;;4.30;;
44919;SDS011;30655;53.094;6.072;2023-01-06T00:36:02;26.25;;;5.03;;
44919;SDS011;30655;53.094;6.072;2023-01-06T00:38:30;28.00;;;4.65;;
44919;SDS011;30655;53.094;6.072;2023-01-06T00:40:57;28.52;;;4.97;;
44919;SDS011;30655;53.094;6.072;2023-01-06T00:43:23;28.55;;;5.50;;
44919;SDS011;30655;53.094;6.072;2023-01-06T00:45:50;20.27;;;4.65;;
44919;SDS011;30655;53.094;6.072;2023-01-06T00:48:17;24.80;;;4.45;;
44919;SDS011;30655;53.094;6.072;2023-01-06T00:50:43;19.95;;;4.55;;
44919;SDS011;30655;53.094;6.072;2023-01-06T00:53:12;24.55;;;5.15;;
44919;SDS011;30655;53.094;6.072;2023-01-06T00:55:40;19.30;;;4.30;;
44919;SDS011;30655;53.094;6.072;2023-01-06T00:58:07;18.27;;;4.18;;
44919;SDS011;30655;53.094;6.072;2023-01-06T01:00:34;13.75;;;3.65;;
44919;SDS011;30655;53.094;6.072;2023-01-06T01:03:03;18.63;;;3.92;;
44919;SDS011;30655;53.094;6.072;2023-01-06T01:05:30;17.42;;;3.50;;
44919;SDS011;30655;53.094;6.072;2023-01-06T01:07:57;18.40;;;4.53;;
44919;SDS011;30655;53.094;6.072;2023-01-06T01:10:25;24.83;;;3.97;;
44919;SDS011;30655;53.094;6.072;2023-01-06T01:12:52;16.08;;;3.78;;
44919;SDS011;30655;53.094;6.072;2023-01-06T01:15:20;20.25;;;4.13;;
44919;SDS011;30655;53.094;6.072;2023-01-06T01:17:46;19.02;;;3.55;;
44919;SDS011;30655;53.094;6.072;2023-01-06T01:20:13;18.13;;;4.05;;
44919;SDS011;30655;53.094;6.072;2023-01-06T01:22:40;14.90;;;3.47;;
44919;SDS011;30655;53.094;6.072;2023-01-06T01:25:07;21.02;;;3.65;;
44919;SDS011;30655;53.094;6.072;2023-01-06T01:27:36;12.00;;;3.38;;
44919;SDS011;30655;53.094;6.072;2023-01-06T01:30:04;14.85;;;3.53;;
44919;SDS011;30655;53.094;6.072;2023-01-06T01:32:31;14.48;;;3.50;;
44919;SDS011;30655;53.094;6.072;2023-01-06T01:34:58;20.80;;;4.85;;
44919;SDS011;30655;53.094;6.072;2023-01-06T01:37:25;14.25;;;4.75;;
44919;SDS011;30655;53.094;6.072;2023-01-06T01:39:52;13.63;;;5.15;;
44919;SDS011;30655;53.094;6.072;2023-01-06T01:42:19;17.65;;;4.38;;
44919;SDS011;30655;53.094;6.072;2023-01-06T01:44:53;16.17;;;4.93;;
44919;SDS011;30655;53.094;6.072;2023-01-06T01:47:24;12.65;;;4.20;;
44919;SDS011;30655;53.094;6.072;2023-01-06T01:49:55;11.68;;;4.38;;
44919;SDS011;30655;53.094;6.072;2023-01-06T01:52:25;14.13;;;4.63;;
44919;SDS011;30655;53.094;6.072;2023-01-06T01:54:53;19.67;;;4.93;;
44919;SDS011;30655;53.094;6.072;2023-01-06T01:57:24;16.45;;;5.20;;
44919;SDS011;30655;53.094;6.072;2023-01-06T01:59:56;14.88;;;4.95;;
44919;SDS011;30655;53.094;6.072;2023-01-06T02:02:24;12.10;;;4.50;;
44919;SDS011;30655;53.094;6.072;2023-01-06T02:04:55;16.63;;;5.25;;
44919;SDS011;30655;53.094;6.072;2023-01-06T02:07:22;11.88;;;4.15;;
44919;SDS011;30655;53.094;6.072;2023-01-06T02:09:53;10.60;;;3.65;;
44919;SDS011;30655;53.094;6.072;2023-01-06T02:12:25;15.18;;;4.10;;
44919;SDS011;30655;53.094;6.072;2023-01-06T02:14:52;14.85;;;4.03;;
44919;SDS011;30655;53.094;6.072;2023-01-06T02:17:28;13.50;;;4.20;;
44919;SDS011;30655;53.094;6.072;2023-01-06T02:20:33;13.45;;;3.85;;
44919;SDS011;30655;53.094;6.072;2023-01-06T02:23:20;15.07;;;3.92;;
44919;SDS011;30655;53.094;6.072;2023-01-06T02:26:08;17.98;;;4.00;;
44919;SDS011;30655;53.094;6.072;2023-01-06T02:29:18;15.23;;;3.95;;
44919;SDS011;30655;53.094;6.072;2023-01-06T02:32:04;12.60;;;2.72;;
44919;SDS011;30655;53.094;6.072;2023-01-06T02:34:44;14.23;;;3.47;;
44919;SDS011;30655;53.094;6.072;2023-01-06T02:37:25;9.05;;;2.45;;
44919;SDS011;30655;53.094;6.072;2023-01-06T02:40:09;8.70;;;2.80;;
44919;SDS011;30655;53.094;6.072;2023-01-06T02:42:46;13.18;;;2.65;;
44919;SDS011;30655;53.094;6.072;2023-01-06T02:45:25;14.25;;;2.75;;
44919;SDS011;30655;53.094;6.072;2023-01-06T02:48:02;11.48;;;2.85;;
44919;SDS011;30655;53.094;6.072;2023-01-06T02:50:38;9.40;;;2.15;;
44919;SDS011;30655;53.094;6.072;2023-01-06T02:53:14;7.28;;;2.50;;
44919;SDS011;30655;53.094;6.072;2023-01-06T02:55:48;7.60;;;2.88;;
44919;SDS011;30655;53.094;6.072;2023-01-06T02:58:18;8.48;;;3.08;;
44919;SDS011;30655;53.094;6.072;2023-01-06T03:00:53;9.40;;;3.40;;
44919;SDS011;30655;53.094;6.072;2023-01-06T03:03:27;11.57;;;4.25;;
44919;SDS011;30655;53.094;6.072;2023-01-06T03:06:01;11.02;;;4.22;;
44919;SDS011;30655;53.094;6.072;2023-01-06T03:08:31;10.95;;;4.85;;
44919;SDS011;30655;53.094;6.072;2023-01-06T03:11:01;11.55;;;5.55;;
44919;SDS011;30655;53.094;6.072;2023-01-06T03:13:32;9.57;;;5.50;;
44919;SDS011;30655;53.094;6.072;2023-01-06T03:16:03;6.45;;;4.78;;
44919;SDS011;30655;53.094;6.072;2023-01-06T03:18:32;13.20;;;5.47;;
44919;SDS011;30655;53.094;6.072;2023-01-06T03:21:01;10.30;;;5.57;;
44919;SDS011;30655;53.094;6.072;2023-01-06T03:23:32;12.32;;;5.68;;
44919;SDS011;30655;53.094;6.072;2023-01-06T03:26:00;13.23;;;5.65;;
44919;SDS011;30655;53.094;6.072;2023-01-06T03:28:27;9.27;;;5.90;;
44919;SDS011;30655;53.094;6.072;2023-01-06T03:30:55;9.02;;;6.10;;
44919;SDS011;30655;53.094;6.072;2023-01-06T03:33:33;11.07;;;7.05;;
44919;SDS011;30655;53.094;6.072;2023-01-06T03:36:09;8.65;;;7.00;;
44919;SDS011;30655;53.094;6.072;2023-01-06T03:38:46;11.23;;;7.43;;
44919;SDS011;30655;53.094;6.072;2023-01-06T03:41:24;11.00;;;7.40;;
44919;SDS011;30655;53.094;6.072;2023-01-06T03:43:57;17.13;;;7.93;;
44919;SDS011;30655;53.094;6.072;2023-01-06T03:46:33;9.15;;;8.30;;
44919;SDS011;30655;53.094;6.072;2023-01-06T03:49:07;9.15;;;8.20;;
44919;SDS011;30655;53.094;6.072;2023-01-06T03:51:43;11.60;;;8.38;;
44919;SDS011;30655;53.094;6.072;2023-01-06T03:54:17;9.32;;;7.53;;
44919;SDS011;30655;53.094;6.072;2023-01-06T03:56:53;8.73;;;8.02;;
44919;SDS011;30655;53.094;6.072;2023-01-06T03:59:24;8.63;;;7.57;;
44919;SDS011;30655;53.094;6.072;2023-01-06T04:01:55;9.82;;;7.00;;
44919;SDS011;30655;53.094;6.072;2023-01-06T04:04:26;9.25;;;6.35;;
44919;SDS011;30655;53.094;6.072;2023-01-06T04:06:52;6.53;;;5.18;;
44919;SDS011;30655;53.094;6.072;2023-01-06T04:09:19;7.03;;;4.97;;
44919;SDS011;30655;53.094;6.072;2023-01-06T04:11:46;7.75;;;4.80;;
44919;SDS011;30655;53.094;6.072;2023-01-06T04:14:13;7.72;;;4.80;;
44919;SDS011;30655;53.094;6.072;2023-01-06T04:16:39;5.97;;;4.40;;
44919;SDS011;30655;53.094;6.072;2023-01-06T04:19:06;5.35;;;3.70;;
44919;SDS011;30655;53.094;6.072;2023-01-06T04:21:34;5.35;;;3.22;;
44919;SDS011;30655;53.094;6.072;2023-01-06T04:24:01;3.30;;;3.00;;
44919;SDS011;30655;53.094;6.072;2023-01-06T04:26:28;3.25;;;2.97;;
44919;SDS011;30655;53.094;6.072;2023-01-06T04:28:55;6.45;;;2.83;;
44919;SDS011;30655;53.094;6.072;2023-01-06T04:31:22;4.30;;;2.50;;
44919;SDS011;30655;53.094;6.072;2023-01-06T04:33:49;5.10;;;2.60;;
44919;SDS011;30655;53.094;6.072;2023-01-06T04:36:15;4.57;;;2.40;;
44919;SDS011;30655;53.094;6.072;2023-01-06T04:38:44;7.35;;;2.55;;
44919;SDS011;30655;53.094;6.072;2023-01-06T04:41:10;3.80;;;2.40;;
44919;SDS011;30655;53.094;6.072;2023-01-06T04:43:38;5.88;;;2.85;;
44919;SDS011;30655;53.094;6.072;2023-01-06T04:46:05;5.95;;;3.30;;
44919;SDS011;30655;53.094;6.072;2023-01-06T04:48:31;4.40;;;2.97;;
44919;SDS011;30655;53.094;6.072;2023-01-06T04:50:59;4.38;;;2.55;;
44919;SDS011;30655;53.094;6.072;2023-01-06T04:53:26;8.43;;;3.03;;
44919;SDS011;30655;53.094;6.072;2023-01-06T04:55:55;8.02;;;3.22;;
44919;SDS011;30655;53.094;6.072;2023-01-06T04:58:21;4.68;;;2.50;;
44919;SDS011;30655;53.094;6.072;2023-01-06T05:00:48;3.67;;;2.53;;
44919;SDS011;30655;53.094;6.072;2023-01-06T05:03:15;3.33;;;2.53;;
44919;SDS011;30655;53.094;6.072;2023-01-06T05:05:42;5.20;;;2.50;;
44919;SDS011;30655;53.094;6.072;2023-01-06T05:08:08;3.67;;;2.42;;
44919;SDS011;30655;53.094;6.072;2023-01-06T05:10:35;2.80;;;2.20;;
44919;SDS011;30655;53.094;6.072;2023-01-06T05:13:03;3.08;;;2.30;;
44919;SDS011;30655;53.094;6.072;2023-01-06T05:15:30;6.50;;;2.25;;
44919;SDS011;30655;53.094;6.072;2023-01-06T05:17:57;4.63;;;2.45;;
44919;SDS011;30655;53.094;6.072;2023-01-06T05:20:24;3.33;;;2.20;;
44919;SDS011;30655;53.094;6.072;2023-01-06T05:22:50;5.90;;;2.30;;
44919;SDS011;30655;53.094;6.072;2023-01-06T05:25:17;3.17;;;1.95;;
44919;SDS011;30655;53.094;6.072;2023-01-06T05:27:44;3.28;;;2.58;;
44919;SDS011;30655;53.094;6.072;2023-01-06T05:30:14;5.88;;;2.50;;
44919;SDS011;30655;53.094;6.072;2023-01-06T05:32:40;4.57;;;2.50;;
44919;SDS011;30655;53.094;6.072;2023-01-06T05:35:09;3.97;;;2.55;;
44919;SDS011;30655;53.094;6.072;2023-01-06T05:37:35;4.18;;;2.67;;
44919;SDS011;30655;53.094;6.072;2023-01-06T05:40:02;3.95;;;3.08;;
44919;SDS011;30655;53.094;6.072;2023-01-06T05:42:29;4.68;;;3.00;;
44919;SDS011;30655;53.094;6.072;2023-01-06T05:44:56;3.42;;;3.13;;
44919;SDS011;30655;53.094;6.072;2023-01-06T05:47:27;6.45;;;3.40;;
44919;SDS011;30655;53.094;6.072;2023-01-06T05:49:54;6.57;;;3.50;;
44919;SDS011;30655;53.094;6.072;2023-01-06T05:52:21;6.72;;;3.55;;
44919;SDS011;30655;53.094;6.072;2023-01-06T05:54:48;8.85;;;3.33;;
44919;SDS011;30655;53.094;6.072;2023-01-06T05:57:15;7.28;;;4.15;;
44919;SDS011;30655;53.094;6.072;2023-01-06T05:59:42;7.03;;;4.57;;
44919;SDS011;30655;53.094;6.072;2023-01-06T06:02:09;4.95;;;4.40;;
44919;SDS011;30655;53.094;6.072;2023-01-06T06:04:37;7.75;;;4.85;;
44919;SDS011;30655;53.094;6.072;2023-01-06T06:07:04;9.77;;;5.10;;
44919;SDS011;30655;53.094;6.072;2023-01-06T06:09:31;10.15;;;6.25;;
44919;SDS011;30655;53.094;6.072;2023-01-06T06:11:58;9.60;;;5.63;;
44919;SDS011;30655;53.094;6.072;2023-01-06T06:14:25;7.25;;;5.90;;
44919;SDS011;30655;53.094;6.072;2023-01-06T06:16:51;10.73;;;5.70;;
44919;SDS011;30655;53.094;6.072;2023-01-06T06:19:18;9.15;;;6.57;;
44919;SDS011;30655;53.094;6.072;2023-01-06T06:21:47;8.73;;;6.45;;
44919;SDS011;30655;53.094;6.072;2023-01-06T06:24:13;7.35;;;6.32;;
44919;SDS011;30655;53.094;6.072;2023-01-06T06:26:40;8.30;;;6.63;;
44919;SDS011;30655;53.094;6.072;2023-01-06T06:29:07;6.88;;;6.28;;
44919;SDS011;30655;53.094;6.072;2023-01-06T06:31:34;10.88;;;6.88;;
44919;SDS011;30655;53.094;6.072;2023-01-06T06:34:01;7.05;;;6.35;;
44919;SDS011;30655;53.094;6.072;2023-01-06T06:36:29;7.65;;;6.30;;
44919;SDS011;30655;53.094;6.072;2023-01-06T06:38:59;6.45;;;5.90;;
44919;SDS011;30655;53.094;6.072;2023-01-06T06:41:26;6.85;;;5.53;;
44919;SDS011;30655;53.094;6.072;2023-01-06T06:43:52;7.25;;;6.65;;
44919;SDS011;30655;53.094;6.072;2023-01-06T06:46:20;6.57;;;5.95;;
44919;SDS011;30655;53.094;6.072;2023-01-06T06:48:47;6.22;;;5.63;;
44919;SDS011;30655;53.094;6.072;2023-01-06T06:51:15;5.95;;;5.45;;
44919;SDS011;30655;53.094;6.072;2023-01-06T06:53:43;5.13;;;4.72;;
44919;SDS011;30655;53.094;6.072;2023-01-06T06:56:11;5.65;;;5.20;;
44919;SDS011;30655;53.094;6.072;2023-01-06T06:58:39;6.55;;;5.63;;
44919;SDS011;30655;53.094;6.072;2023-01-06T07:01:06;6.13;;;5.53;;
44919;SDS011;30655;53.094;6.072;2023-01-06T07:03:34;5.25;;;4.68;;
44919;SDS011;30655;53.094;6.072;2023-01-06T07:06:01;6.68;;;4.85;;
44919;SDS011;30655;53.094;6.072;2023-01-06T07:08:29;5.22;;;4.78;;
44919;SDS011;30655;53.094;6.072;2023-01-06T07:10:56;4.20;;;3.90;;
44919;SDS011;30655;53.094;6.072;2023-01-06T07:13:24;4.50;;;3.50;;
44919;SDS011;30655;53.094;6.072;2023-01-06T07:15:51;5.78;;;4.10;;
44919;SDS011;30655;53.094;6.072;2023-01-06T07:18:18;4.32;;;3.92;;
44919;SDS011;30655;53.094;6.072;2023-01-06T07:20:46;3.83;;;3.00;;
44919;SDS011;30655;53.094;6.072;2023-01-06T07:23:13;6.50;;;3.42;;
44919;SDS011;30655;53.094;6.072;2023-01-06T07:25:40;7.78;;;2.42;;
44919;SDS011;30655;53.094;6.072;2023-01-06T07:28:07;8.98;;;2.05;;
44919;SDS011;30655;53.094;6.072;2023-01-06T07:30:35;9.07;;;1.58;;
44919;SDS011;30655;53.094;6.072;2023-01-06T07:33:02;9.35;;;1.40;;
44919;SDS011;30655;53.094;6.072;2023-01-06T07:35:30;4.72;;;0.88;;
44919;SDS011;30655;53.094;6.072;2023-01-06T07:38:00;5.05;;;1.20;;
44919;SDS011;30655;53.094;6.072;2023-01-06T07:40:28;9.35;;;1.75;;
44919;SDS011;30655;53.094;6.072;2023-01-06T07:42:55;10.70;;;1.52;;
44919;SDS011;30655;53.094;6.072;2023-01-06T07:45:21;13.25;;;2.22;;
44919;SDS011;30655;53.094;6.072;2023-01-06T07:47:49;12.65;;;1.67;;
44919;SDS011;30655;53.094;6.072;2023-01-06T07:50:16;7.18;;;1.35;;
44919;SDS011;30655;53.094;6.072;2023-01-06T07:52:43;12.55;;;1.60;;
44919;SDS011;30655;53.094;6.072;2023-01-06T07:55:10;6.50;;;1.15;;
44919;SDS011;30655;53.094;6.072;2023-01-06T07:57:37;8.63;;;1.92;;
44919;SDS011;30655;53.094;6.072;2023-01-06T08:00:04;5.65;;;1.00;;
44919;SDS011;30655;53.094;6.072;2023-01-06T08:02:31;10.40;;;1.05;;
44919;SDS011;30655;53.094;6.072;2023-01-06T08:04:59;5.15;;;0.93;;
44919;SDS011;30655;53.094;6.072;2023-01-06T08:07:26;11.73;;;1.50;;
44919;SDS011;30655;53.094;6.072;2023-01-06T08:09:53;12.80;;;1.60;;
44919;SDS011;30655;53.094;6.072;2023-01-06T08:12:20;11.35;;;1.27;;
44919;SDS011;30655;53.094;6.072;2023-01-06T08:14:46;14.50;;;1.98;;
44919;SDS011;30655;53.094;6.072;2023-01-06T08:17:13;15.32;;;1.70;;
44919;SDS011;30655;53.094;6.072;2023-01-06T08:19:40;11.38;;;1.77;;
44919;SDS011;30655;53.094;6.072;2023-01-06T08:22:08;15.82;;;1.77;;
44919;SDS011;30655;53.094;6.072;2023-01-06T08:24:35;13.15;;;2.15;;
44919;SDS011;30655;53.094;6.072;2023-01-06T08:27:11;11.32;;;1.45;;
44919;SDS011;30655;53.094;6.072;2023-01-06T08:29:38;9.73;;;1.55;;
44919;SDS011;30655;53.094;6.072;2023-01-06T08:32:05;14.60;;;1.85;;
44919;SDS011;30655;53.094;6.072;2023-01-06T08:34:36;16.95;;;2.03;;
44919;SDS011;30655;53.094;6.072;2023-01-06T08:37:03;17.20;;;1.70;;
44919;SDS011;30655;53.094;6.072;2023-01-06T08:39:31;18.17;;;2.08;;
44919;SDS011;30655;53.094;6.072;2023-01-06T08:41:58;14.90;;;1.90;;
44919;SDS011;30655;53.094;6.072;2023-01-06T08:44:25;13.70;;;1.80;;
44919;SDS011;30655;53.094;6.072;2023-01-06T08:46:51;10.13;;;1.60;;
44919;SDS011;30655;53.094;6.072;2023-01-06T08:49:18;17.83;;;1.90;;
44919;SDS011;30655;53.094;6.072;2023-01-06T08:51:45;12.65;;;1.73;;
44919;SDS011;30655;53.094;6.072;2023-01-06T08:54:13;13.70;;;2.00;;
44919;SDS011;30655;53.094;6.072;2023-01-06T08:56:41;13.55;;;1.67;;
44919;SDS011;30655;53.094;6.072;2023-01-06T08:59:10;8.77;;;1.40;;
44919;SDS011;30655;53.094;6.072;2023-01-06T09:01:39;10.88;;;1.50;;
44919;SDS011;30655;53.094;6.072;2023-01-06T09:04:07;19.73;;;1.75;;
44919;SDS011;30655;53.094;6.072;2023-01-06T09:06:35;12.07;;;1.23;;
44919;SDS011;30655;53.094;6.072;2023-01-06T09:09:02;20.23;;;2.13;;
44919;SDS011;30655;53.094;6.072;2023-01-06T09:11:32;12.52;;;1.50;;
44919;SDS011;30655;53.094;6.072;2023-01-06T09:14:00;18.55;;;2.35;;
44919;SDS011;30655;53.094;6.072;2023-01-06T09:16:30;17.50;;;2.28;;
44919;SDS011;30655;53.094;6.072;2023-01-06T09:18:57;26.67;;;2.05;;
44919;SDS011;30655;53.094;6.072;2023-01-06T09:21:23;23.67;;;3.55;;
44919;SDS011;30655;53.094;6.072;2023-01-06T09:23:50;27.25;;;2.38;;
44919;SDS011;30655;53.094;6.072;2023-01-06T09:26:17;17.02;;;1.65;;
44919;SDS011;30655;53.094;6.072;2023-01-06T09:28:45;16.15;;;2.42;;
44919;SDS011;30655;53.094;6.072;2023-01-06T09:31:13;18.75;;;2.38;;
44919;SDS011;30655;53.094;6.072;2023-01-06T09:33:43;12.90;;;1.77;;
44919;SDS011;30655;53.094;6.072;2023-01-06T09:36:10;16.88;;;1.90;;
44919;SDS011;30655;53.094;6.072;2023-01-06T09:38:36;20.13;;;2.13;;
44919;SDS011;30655;53.094;6.072;2023-01-06T09:41:07;22.20;;;2.03;;
44919;SDS011;30655;53.094;6.072;2023-01-06T09:43:51;14.50;;;1.70;;
44919;SDS011;30655;53.094;6.072;2023-01-06T09:46:25;21.42;;;2.47;;
44919;SDS011;30655;53.094;6.072;2023-01-06T09:48:57;20.90;;;1.90;;
44919;SDS011;30655;53.094;6.072;2023-01-06T09:51:32;23.40;;;2.00;;
44919;SDS011;30655;53.094;6.072;2023-01-06T09:54:03;11.90;;;1.48;;
44919;SDS011;30655;53.094;6.072;2023-01-06T09:56:44;13.73;;;2.08;;
44919;SDS011;30655;53.094;6.072;2023-01-06T09:59:17;10.70;;;1.65;;
44919;SDS011;30655;53.094;6.072;2023-01-06T10:01:49;15.77;;;2.10;;
44919;SDS011;30655;53.094;6.072;2023-01-06T10:04:16;9.88;;;1.90;;
44919;SDS011;30655;53.094;6.072;2023-01-06T10:09:19;13.82;;;1.40;;
44919;SDS011;30655;53.094;6.072;2023-01-06T10:11:56;14.63;;;1.80;;
44919;SDS011;30655;53.094;6.072;2023-01-06T10:14:32;7.15;;;1.02;;
44919;SDS011;30655;53.094;6.072;2023-01-06T10:17:15;11.80;;;1.75;;
44919;SDS011;30655;53.094;6.072;2023-01-06T10:20:05;21.00;;;2.30;;
44919;SDS011;30655;53.094;6.072;2023-01-06T10:22:52;12.10;;;1.20;;
44919;SDS011;30655;53.094;6.072;2023-01-06T10:25:43;16.05;;;2.35;;
44919;SDS011;30655;53.094;6.072;2023-01-06T10:28:16;18.42;;;2.17;;
44919;SDS011;30655;53.094;6.072;2023-01-06T10:31:01;12.50;;;2.35;;
44919;SDS011;30655;53.094;6.072;2023-01-06T10:33:40;16.23;;;2.15;;
44919;SDS011;30655;53.094;6.072;2023-01-06T10:36:29;10.00;;;1.50;;
44919;SDS011;30655;53.094;6.072;2023-01-06T10:39:09;8.55;;;1.77;;
44919;SDS011;30655;53.094;6.072;2023-01-06T10:41:54;23.85;;;3.03;;
44919;SDS011;30655;53.094;6.072;2023-01-06T10:44:39;19.75;;;1.85;;
44919;SDS011;30655;53.094;6.072;2023-01-06T10:47:29;13.00;;;2.63;;
44919;SDS011;30655;53.094;6.072;2023-01-06T10:50:24;15.77;;;1.60;;
44919;SDS011;30655;53.094;6.072;2023-01-06T10:53:18;13.95;;;1.58;;
44919;SDS011;30655;53.094;6.072;2023-01-06T10:56:09;10.95;;;1.50;;
44919;SDS011;30655;53.094;6.072;2023-01-06T10:58:40;17.55;;;2.50;;
44919;SDS011;30655;53.094;6.072;2023-01-06T11:01:12;12.55;;;1.73;;
44919;SDS011;30655;53.094;6.072;2023-01-06T11:03:40;13.02;;;2.30;;
44919;SDS011;30655;53.094;6.072;2023-01-06T11:06:14;21.95;;;2.45;;
44919;SDS011;30655;53.094;6.072;2023-01-06T11:08:45;11.27;;;2.05;;
44919;SDS011;30655;53.094;6.072;2023-01-06T11:11:13;13.98;;;1.77;;
44919;SDS011;30655;53.094;6.072;2023-01-06T11:13:54;11.60;;;1.10;;
44919;SDS011;30655;53.094;6.072;2023-01-06T11:16:23;14.90;;;1.75;;
44919;SDS011;30655;53.094;6.072;2023-01-06T11:18:53;9.45;;;1.48;;
44919;SDS011;30655;53.094;6.072;2023-01-06T11:21:23;12.32;;;1.60;;
44919;SDS011;30655;53.094;6.072;2023-01-06T11:24:08;15.13;;;2.30;;
44919;SDS011;30655;53.094;6.072;2023-01-06T11:26:42;7.32;;;1.92;;
44919;SDS011;30655;53.094;6.072;2023-01-06T11:29:16;9.48;;;1.58;;
44919;SDS011;30655;53.094;6.072;2023-01-06T11:31:46;12.30;;;1.25;;
44919;SDS011;30655;53.094;6.072;2023-01-06T11:34:17;14.85;;;1.90;;
44919;SDS011;30655;53.094;6.072;2023-01-06T11:36:48;14.23;;;2.17;;
44919;SDS011;30655;53.094;6.072;2023-01-06T11:39:18;12.85;;;1.35;;
44919;SDS011;30655;53.094;6.072;2023-01-06T11:41:50;12.10;;;1.65;;
44919;SDS011;30655;53.094;6.072;2023-01-06T11:44:21;13.43;;;1.58;;
44919;SDS011;30655;53.094;6.072;2023-01-06T11:46:54;11.93;;;1.80;;
44919;SDS011;30655;53.094;6.072;2023-01-06T11:49:24;10.63;;;1.40;;
44919;SDS011;30655;53.094;6.072;2023-01-06T11:51:59;23.75;;;2.15;;
44919;SDS011;30655;53.094;6.072;2023-01-06T11:54:30;5.93;;;1.40;;
44919;SDS011;30655;53.094;6.072;2023-01-06T11:56:58;16.55;;;2.03;;
44919;SDS011;30655;53.094;6.072;2023-01-06T11:59:27;9.05;;;1.50;;
44919;SDS011;30655;53.094;6.072;2023-01-06T12:02:06;11.80;;;1.45;;
44919;SDS011;30655;53.094;6.072;2023-01-06T12:04:41;13.40;;;1.70;;
44919;SDS011;30655;53.094;6.072;2023-01-06T12:07:16;8.55;;;1.20;;
44919;SDS011;30655;53.094;6.072;2023-01-06T12:09:47;15.90;;;1.98;;
44919;SDS011;30655;53.094;6.072;2023-01-06T12:12:18;8.35;;;1.83;;
44919;SDS011;30655;53.094;6.072;2023-01-06T12:14:46;13.40;;;2.03;;
44919;SDS011;30655;53.094;6.072;2023-01-06T12:17:14;13.80;;;1.80;;
44919;SDS011;30655;53.094;6.072;2023-01-06T12:19:51;15.68;;;1.70;;
44919;SDS011;30655;53.094;6.072;2023-01-06T12:22:27;9.30;;;1.50;;
44919;SDS011;30655;53.094;6.072;2023-01-06T12:25:02;15.82;;;1.77;;
44919;SDS011;30655;53.094;6.072;2023-01-06T12:27:32;16.25;;;1.80;;
44919;SDS011;30655;53.094;6.072;2023-01-06T12:32:33;17.92;;;3.80;;
44919;SDS011;30655;53.094;6.072;2023-01-06T12:35:04;12.13;;;2.63;;
44919;SDS011;30655;53.094;6.072;2023-01-06T12:37:38;10.02;;;1.83;;
44919;SDS011;30655;53.094;6.072;2023-01-06T12:40:09;13.55;;;2.40;;
44919;SDS011;30655;53.094;6.072;2023-01-06T12:42:43;10.77;;;2.35;;
44919;SDS011;30655;53.094;6.072;2023-01-06T12:45:16;13.18;;;2.80;;
44919;SDS011;30655;53.094;6.072;2023-01-06T12:47:47;10.80;;;1.90;;
44919;SDS011;30655;53.094;6.072;2023-01-06T12:50:22;10.10;;;2.08;;
44919;SDS011;30655;53.094;6.072;2023-01-06T12:53:00;12.68;;;1.70;;
44919;SDS011;30655;53.094;6.072;2023-01-06T12:55:48;11.95;;;2.17;;
44919;SDS011;30655;53.094;6.072;2023-01-06T12:58:23;6.63;;;1.60;;
44919;SDS011;30655;53.094;6.072;2023-01-06T13:00:56;11.50;;;2.08;;
44919;SDS011;30655;53.094;6.072;2023-01-06T13:06:24;12.43;;;1.85;;
44919;SDS011;30655;53.094;6.072;2023-01-06T13:09:05;13.65;;;2.30;;
44919;SDS011;30655;53.094;6.072;2023-01-06T13:11:42;10.75;;;2.92;;
44919;SDS011;30655;53.094;6.072;2023-01-06T13:14:25;19.92;;;5.32;;
44919;SDS011;30655;53.094;6.072;2023-01-06T13:17:02;12.18;;;3.63;;
44919;SDS011;30655;53.094;6.072;2023-01-06T13:19:36;10.52;;;1.80;;
44919;SDS011;30655;53.094;6.072;2023-01-06T13:22:12;13.65;;;1.77;;
44919;SDS011;30655;53.094;6.072;2023-01-06T13:24:48;15.30;;;2.67;;
44919;SDS011;30655;53.094;6.072;2023-01-06T13:27:37;15.02;;;1.65;;
44919;SDS011;30655;53.094;6.072;2023-01-06T13:30:16;13.45;;;2.22;;
44919;SDS011;30655;53.094;6.072;2023-01-06T13:35:57;12.20;;;2.15;;
44919;SDS011;30655;53.094;6.072;2023-01-06T13:38:42;16.77;;;2.53;;
44919;SDS011;30655;53.094;6.072;2023-01-06T13:41:21;7.10;;;1.92;;
44919;SDS011;30655;53.094;6.072;2023-01-06T13:46:19;9.57;;;1.52;;
44919;SDS011;30655;53.094;6.072;2023-01-06T13:48:49;11.80;;;2.08;;
44919;SDS011;30655;53.094;6.072;2023-01-06T13:51:21;9.38;;;1.70;;
44919;SDS011;30655;53.094;6.072;2023-01-06T13:53:49;18.17;;;1.90;;
44919;SDS011;30655;53.094;6.072;2023-01-06T13:59:16;8.70;;;1.60;;
44919;SDS011;30655;53.094;6.072;2023-01-06T14:01:45;11.02;;;2.65;;
44919;SDS011;30655;53.094;6.072;2023-01-06T14:07:29;17.27;;;1.90;;
44919;SDS011;30655;53.094;6.072;2023-01-06T14:09:58;8.75;;;1.55;;
44919;SDS011;30655;53.094;6.072;2023-01-06T14:12:27;12.75;;;1.83;;
44919;SDS011;30655;53.094;6.072;2023-01-06T14:14:58;13.93;;;2.50;;
44919;SDS011;30655;53.094;6.072;2023-01-06T14:17:29;15.48;;;2.58;;
44919;SDS011;30655;53.094;6.072;2023-01-06T14:20:03;11.38;;;2.13;;
44919;SDS011;30655;53.094;6.072;2023-01-06T14:22:32;13.52;;;2.13;;
44919;SDS011;30655;53.094;6.072;2023-01-06T14:25:00;15.43;;;2.30;;
44919;SDS011;30655;53.094;6.072;2023-01-06T14:30:33;14.05;;;1.90;;
44919;SDS011;30655;53.094;6.072;2023-01-06T14:33:03;16.35;;;2.58;;
44919;SDS011;30655;53.094;6.072;2023-01-06T14:35:45;14.85;;;2.40;;
44919;SDS011;30655;53.094;6.072;2023-01-06T14:40:58;18.40;;;2.55;;
44919;SDS011;30655;53.094;6.072;2023-01-06T14:46:02;20.17;;;2.95;;
44919;SDS011;30655;53.094;6.072;2023-01-06T14:48:34;15.27;;;2.95;;
44919;SDS011;30655;53.094;6.072;2023-01-06T14:51:07;14.13;;;3.17;;
44919;SDS011;30655;53.094;6.072;2023-01-06T14:53:42;23.40;;;5.70;;
44919;SDS011;30655;53.094;6.072;2023-01-06T14:56:16;12.43;;;4.50;;
44919;SDS011;30655;53.094;6.072;2023-01-06T14:58:46;17.27;;;7.03;;
44919;SDS011;30655;53.094;6.072;2023-01-06T15:01:18;16.67;;;4.20;;
44919;SDS011;30655;53.094;6.072;2023-01-06T15:03:52;16.35;;;4.88;;
44919;SDS011;30655;53.094;6.072;2023-01-06T15:06:21;9.73;;;3.17;;
44919;SDS011;30655;53.094;6.072;2023-01-06T15:08:49;18.40;;;2.80;;
44919;SDS011;30655;53.094;6.072;2023-01-06T15:11:25;18.00;;;3.45;;
44919;SDS011;30655;53.094;6.072;2023-01-06T15:13:54;16.60;;;3.47;;
44919;SDS011;30655;53.094;6.072;2023-01-06T15:16:23;14.73;;;3.38;;
44919;SDS011;30655;53.094;6.072;2023-01-06T15:18:58;17.77;;;3.08;;
44919;SDS011;30655;53.094;6.072;2023-01-06T15:21:26;13.88;;;2.88;;
44919;SDS011;30655;53.094;6.072;2023-01-06T15:23:53;21.48;;;3.08;;
44919;SDS011;30655;53.094;6.072;2023-01-06T15:26:24;13.93;;;2.97;;
44919;SDS011;30655;53.094;6.072;2023-01-06T15:29:01;10.75;;;3.53;;